North Charleston, SC

11:59 AM EDT on August 31, 2016 (GMT -0400)
Park Circle | | Change Station

Elev 20 ft 32.89 °N, 79.99 °W | Updated 12 seconds ago

Mostly Cloudy
Mostly Cloudy
83.2 °F
Feels Like 92 °F
N
0.0
Wind Variable Wind from North
Gusts 2.0 mph

Today
High -- | Low -- °F
--% Chance of Precip.
Yesterday
High -- | Low -- °F
Precip. -- in
Pressure 29.97 in
Visibility 10.0 miles
Clouds Few 2000 ft
Scattered Clouds 12000 ft
Mostly Cloudy 20000 ft
Heat Index 92 °F
Dew Point 76 °F
Humidity 79%
Rainfall 0.00 in
Snow Depth Not available.
6:54 AM 7:45 PM
Waning Crescent, 1% visible
METAR KCHS 311556Z 06009KT 10SM FEW020 SCT120 BKN200 29/22 A2997 RMK AO2 SLP149 T02940222
Pressure 29.97 in
Visibility 10.0 miles
Clouds Few 2000 ft
Scattered Clouds 12000 ft
Mostly Cloudy 20000 ft
Heat Index 92 °F
Dew Point 76 °F
Humidity 79%
Rainfall 0.00 in
Snow Depth Not available.
6:54 AM 7:45 PM
Waning Crescent, 1% visible
METAR KCHS 311556Z 06009KT 10SM FEW020 SCT120 BKN200 29/22 A2997 RMK AO2 SLP149 T02940222

10-Day Weather Forecast

Almanac

Astronomy

Aug. 31, 2016 Rise Set
Actual Time
Civil Twilight
Nautical Twilight
Astronomical Twilight
Moon
Length of Visible Light
Length of Day
Tomorrow will be .
, % of the Moon is Illuminated

Today's Extremes

State Highs State Lows

Community

WunderPhotos

Upload Photos

1,936,098 photos uploaded!

WunderBlog® & News

Nearby

Air Quality

  Air Quality AQ Index Pollutant
Not available.

Snow Depth

Station Depth Elevation

Earthquake Activity

City Distance Mag. Time & Date
Minimum magnitude displayed is 2.5.

Coastal Water Temperatures

Place Temperature

Stations

Nearby Weather Stations

Station Location Temp. Windchill Dew Point Humidity Wind Precip. Elev Updated Type
                   

Watches & Warnings

There are currently no watches in effect.